Time;durP1;ratioP1;P1;durP2;ratioP2;P2;SDS_P1;SDS_P2;PMS_P1;PMS_P2;Temp;Humidity;BMP_temperature;BMP_pressure;BME280_temperature;BME280_humidity;BME280_pressure;Samples;Min_cycle;Max_cycle;Signal;HPM_P1;HPM_P2
2022/03/23 00:01:16;;;;;;;32.42;13.35;;;;;;;9.27;58.51;101483.97;5019560;28;20082;-43
2022/03/23 00:03:44;;;;;;;31.85;13.82;;;;;;;9.25;58.47;101486.50;5021825;28;20049;-48
2022/03/23 00:06:13;;;;;;;31.73;13.73;;;;;;;9.24;59.03;101477.00;5021517;28;20095;-45
2022/03/23 00:08:40;;;;;;;29.83;12.57;;;;;;;9.21;58.87;101479.50;5025033;28;20080;-48
2022/03/23 00:11:07;;;;;;;37.72;14.27;;;;;;;9.19;59.37;101481.16;5021451;28;20049;-47
2022/03/23 00:13:34;;;;;;;31.63;14.95;;;;;;;9.18;58.22;101479.41;5020742;28;20103;-50
2022/03/23 00:16:00;;;;;;;31.58;11.95;;;;;;;9.18;59.09;101483.75;5022322;28;20455;-49
2022/03/23 00:18:28;;;;;;;32.88;13.73;;;;;;;9.16;59.19;101481.09;5020890;28;20056;-42
2022/03/23 00:20:55;;;;;;;31.70;14.23;;;;;;;9.16;58.52;101481.09;5024641;28;20044;-46
2022/03/23 00:23:22;;;;;;;31.17;14.18;;;;;;;9.17;59.24;101477.69;5019561;28;20801;-44
2022/03/23 00:25:49;;;;;;;36.83;13.68;;;;;;;9.18;59.34;101484.59;5019887;28;20042;-46
2022/03/23 00:28:15;;;;;;;29.23;12.35;;;;;;;9.16;58.78;101486.28;5022513;28;20048;-45
2022/03/23 00:30:42;;;;;;;31.23;12.98;;;;;;;9.15;59.15;101484.50;5023603;28;20045;-47
2022/03/23 00:33:27;;;;;;;35.80;13.88;;;;;;;9.12;59.72;101484.44;5024306;28;20111;-43
2022/03/23 00:35:55;;;;;;;34.08;14.60;;;;;;;9.10;59.70;101487.00;5023851;28;20050;-45
2022/03/23 00:38:22;;;;;;;37.28;14.98;;;;;;;9.08;59.17;101482.59;5021499;28;20144;-48
2022/03/23 00:40:49;;;;;;;33.65;13.57;;;;;;;9.07;59.72;101486.00;5023021;28;20060;-46
2022/03/23 00:43:16;;;;;;;34.53;14.07;;;;;;;9.03;59.74;101479.03;5022528;28;20103;-45
2022/03/23 00:45:43;;;;;;;29.27;13.25;;;;;;;8.99;59.11;101481.50;5023375;28;20053;-45
2022/03/23 00:48:10;;;;;;;30.73;14.07;;;;;;;8.96;59.91;101485.75;5023739;28;20103;-46
2022/03/23 00:50:36;;;;;;;32.72;14.13;;;;;;;8.91;59.68;101490.78;5021730;28;20540;-47
2022/03/23 00:53:04;;;;;;;33.83;14.50;;;;;;;8.88;60.08;101490.69;5024275;28;20049;-47
2022/03/23 00:55:31;;;;;;;39.00;15.65;;;;;;;8.83;59.58;101492.28;5023834;28;20042;-44
2022/03/23 00:57:57;;;;;;;35.13;15.75;;;;;;;8.76;60.34;101492.94;5021371;28;20068;-46
2022/03/23 01:00:24;;;;;;;37.45;15.45;;;;;;;8.67;59.58;101497.00;5023498;28;20053;-45
2022/03/23 01:02:52;;;;;;;35.65;15.02;;;;;;;8.59;59.37;101495.91;5028228;28;20068;-47
2022/03/23 01:05:19;;;;;;;34.15;14.40;;;;;;;8.49;59.82;101497.31;5025146;28;20046;-47
2022/03/23 01:07:46;;;;;;;40.85;16.23;;;;;;;8.41;60.09;101497.09;5025366;28;20053;-47
2022/03/23 01:10:15;;;;;;;40.78;16.42;;;;;;;8.36;60.73;101501.25;5022442;28;20076;-47
2022/03/23 01:12:44;;;;;;;37.13;14.98;;;;;;;8.29;59.66;101494.16;5016668;28;20057;-46
2022/03/23 01:15:13;;;;;;;38.42;15.55;;;;;;;8.21;60.89;101499.94;5023774;28;20129;-49
2022/03/23 01:17:41;;;;;;;37.22;14.95;;;;;;;8.16;60.17;101491.19;5022902;28;20049;-44
2022/03/23 01:20:12;;;;;;;37.95;15.68;;;;;;;8.11;61.09;101495.34;5026502;28;20544;-47
2022/03/23 01:22:43;;;;;;;39.47;15.82;;;;;;;8.06;60.05;101491.72;5021401;28;20049;-46
2022/03/23 01:25:16;;;;;;;41.75;15.60;;;;;;;8.01;60.08;101486.44;5020805;28;20129;-45
2022/03/23 01:27:45;;;;;;;37.80;15.18;;;;;;;7.98;59.90;101487.22;5025303;28;20058;-45
2022/03/23 01:30:15;;;;;;;35.25;14.70;;;;;;;7.96;60.98;101488.88;5022369;28;20107;-46
2022/03/23 01:33:00;;;;;;;34.33;14.88;;;;;;;7.95;61.51;101496.56;5026154;28;20056;-49
2022/03/23 01:35:28;;;;;;;37.60;16.00;;;;;;;7.97;61.30;101488.03;5021494;28;20063;-48
2022/03/23 01:37:56;;;;;;;36.70;16.02;;;;;;;7.96;62.11;101486.31;5023729;28;20049;-44
2022/03/23 01:40:23;;;;;;;42.58;15.32;;;;;;;7.97;61.80;101477.72;5020177;28;20045;-44
2022/03/23 01:42:50;;;;;;;36.03;15.57;;;;;;;7.94;62.12;101469.88;5020358;28;20062;-47
2022/03/23 01:45:16;;;;;;;40.03;15.70;;;;;;;7.92;61.04;101468.09;5024894;28;20049;-45
2022/03/23 01:47:43;;;;;;;39.35;15.68;;;;;;;7.89;60.63;101474.03;5024536;28;20050;-44
2022/03/23 01:50:10;;;;;;;43.63;16.08;;;;;;;7.87;61.52;101480.84;5021682;28;20064;-43
2022/03/23 01:52:38;;;;;;;39.85;16.05;;;;;;;7.84;62.05;101480.75;5021843;28;20092;-48
2022/03/23 01:55:13;;;;;;;37.17;16.52;;;;;;;7.80;61.90;101484.06;5020429;28;20044;-43
2022/03/23 01:57:43;;;;;;;38.17;15.25;;;;;;;7.77;62.56;101478.81;5022910;28;20046;-45
2022/03/23 02:00:11;;;;;;;38.92;14.73;;;;;;;7.72;61.20;101482.13;5024008;28;20053;-48
2022/03/23 02:02:40;;;;;;;38.90;14.15;;;;;;;7.69;60.96;101476.84;5026292;28;20502;-46
2022/03/23 02:05:08;;;;;;;43.97;16.88;;;;;;;7.66;61.31;101473.28;5021903;28;20114;-46
2022/03/23 02:07:35;;;;;;;42.60;16.30;;;;;;;7.62;61.50;101477.47;5021939;28;20053;-43
2022/03/23 02:10:04;;;;;;;39.55;17.08;;;;;;;7.58;61.46;101473.06;5018812;28;20133;-46
2022/03/23 02:12:30;;;;;;;35.83;15.07;;;;;;;7.53;61.85;101469.47;5021005;28;20080;-44
2022/03/23 02:14:58;;;;;;;40.15;16.70;;;;;;;7.50;61.02;101475.38;5024630;28;20049;-44
2022/03/23 02:17:25;;;;;;;41.25;15.98;;;;;;;7.46;60.96;101469.25;5022356;28;20048;-45
2022/03/23 02:19:52;;;;;;;42.13;17.05;;;;;;;7.44;61.58;101476.03;5023741;28;20049;-47
2022/03/23 02:22:19;;;;;;;43.53;16.95;;;;;;;7.41;61.74;101470.81;5024176;28;20393;-45
2022/03/23 02:24:47;;;;;;;41.05;16.95;;;;;;;7.40;61.91;101463.88;5019177;28;20552;-46
2022/03/23 02:27:15;;;;;;;44.92;16.80;;;;;;;7.39;62.54;101464.72;5019386;28;20053;-44
2022/03/23 02:29:43;;;;;;;39.50;16.80;;;;;;;7.37;61.37;101470.63;5022366;28;20054;-44
2022/03/23 02:32:10;;;;;;;38.42;15.73;;;;;;;7.34;61.98;101463.69;5021874;28;20111;-47
2022/03/23 02:34:36;;;;;;;46.70;17.05;;;;;;;7.33;61.53;101477.41;5020428;28;20046;-46
2022/03/23 02:37:04;;;;;;;37.80;17.15;;;;;;;7.30;62.05;101472.16;5023218;28;20049;-43
2022/03/23 02:39:31;;;;;;;43.00;16.60;;;;;;;7.27;62.62;101478.06;5023633;28;20046;-43
2022/03/23 02:41:58;;;;;;;40.55;16.08;;;;;;;7.24;61.96;101472.81;5021931;28;20064;-46
2022/03/23 02:44:26;;;;;;;40.67;16.65;;;;;;;7.21;63.09;101472.69;5022404;28;20119;-46
2022/03/23 02:46:53;;;;;;;47.88;17.55;;;;;;;7.16;63.30;101477.69;5025169;28;20052;-46
2022/03/23 02:49:20;;;;;;;42.03;17.55;;;;;;;7.14;63.46;101475.88;5024479;28;20477;-45
2022/03/23 02:51:48;;;;;;;42.28;17.05;;;;;;;7.13;63.29;101480.16;5026241;28;20045;-46
2022/03/23 03:02:30;;;;;;;40.72;15.63;;;;;;;6.97;63.07;101488.19;5027292;27;20420;-42
2022/03/23 03:04:57;;;;;;;42.58;15.10;;;;;;;6.94;62.88;101483.81;5008374;28;20473;-45
2022/03/23 03:07:24;;;;;;;37.25;14.15;;;;;;;6.87;63.27;101477.56;5006658;28;20054;-45
2022/03/23 03:09:50;;;;;;;39.40;15.18;;;;;;;6.84;63.42;101477.44;5002627;28;20042;-45
2022/03/23 03:12:17;;;;;;;35.55;14.65;;;;;;;6.81;62.59;101477.31;5001609;28;20046;-43
2022/03/23 03:14:44;;;;;;;44.50;14.77;;;;;;;6.78;62.81;101472.06;5006792;28;20104;-42
2022/03/23 03:17:11;;;;;;;43.25;16.10;;;;;;;6.74;63.71;101477.94;5006305;28;20050;-49
2022/03/23 03:19:38;;;;;;;43.25;15.80;;;;;;;6.71;64.05;101480.38;5009043;28;20049;-43
2022/03/23 03:22:05;;;;;;;41.45;14.63;;;;;;;6.71;62.96;101490.69;5004580;28;20046;-44
2022/03/23 03:24:32;;;;;;;42.17;14.77;;;;;;;6.67;64.09;101485.44;5009021;28;20054;-45
2022/03/23 03:26:58;;;;;;;41.42;15.80;;;;;;;6.64;63.69;101479.28;5003415;28;20050;-44
2022/03/23 03:29:26;;;;;;;48.90;15.40;;;;;;;6.60;64.46;101478.31;5005663;28;20390;-43
2022/03/23 03:31:52;;;;;;;42.90;15.60;;;;;;;6.59;63.55;101480.81;5001146;28;20058;-44
2022/03/23 03:34:19;;;;;;;39.63;14.32;;;;;;;6.54;62.73;101472.94;5007731;28;20421;-46
2022/03/23 03:36:46;;;;;;;43.58;15.73;;;;;;;6.52;64.35;101474.59;5004584;28;20050;-44
2022/03/23 03:39:12;;;;;;;46.95;16.92;;;;;;;6.47;63.34;101476.97;5004566;28;20489;-45
2022/03/23 03:41:39;;;;;;;46.13;15.73;;;;;;;6.47;63.20;101476.09;5006750;28;20049;-49
2022/03/23 03:44:07;;;;;;;45.58;16.70;;;;;;;6.44;63.14;101471.72;5000956;28;20049;-45
2022/03/23 03:46:33;;;;;;;48.88;16.70;;;;;;;6.43;64.38;101481.13;5008807;28;21718;-47
2022/03/23 03:49:00;;;;;;;43.35;15.60;;;;;;;6.42;64.73;101474.22;4999703;28;20065;-44
2022/03/23 03:51:27;;;;;;;45.40;16.10;;;;;;;6.41;63.74;101474.16;5005890;28;20050;-46
2022/03/23 03:53:54;;;;;;;38.25;14.85;;;;;;;6.39;63.82;101478.41;5005280;28;20054;-44
2022/03/23 03:56:20;;;;;;;46.97;16.33;;;;;;;6.35;63.77;101482.53;5005610;28;20203;-46
2022/03/23 03:58:48;;;;;;;43.40;15.75;;;;;;;6.31;64.20;101485.81;5001114;28;20421;-44
2022/03/23 04:01:14;;;;;;;44.67;17.05;;;;;;;6.27;64.34;101486.50;5005646;28;20050;-43
2022/03/23 04:03:41;;;;;;;47.90;16.30;;;;;;;6.24;64.70;101489.84;5004119;28;20057;-44
2022/03/23 04:06:08;;;;;;;43.65;14.93;;;;;;;6.21;64.29;101486.31;5003097;28;20050;-43
2022/03/23 04:08:35;;;;;;;46.55;17.52;;;;;;;6.18;63.89;101484.47;5006613;28;20049;-43
2022/03/23 04:11:02;;;;;;;47.35;17.17;;;;;;;6.17;64.75;101473.31;5007235;28;20053;-42
2022/03/23 04:13:29;;;;;;;54.60;18.35;;;;;;;6.16;64.38;101486.09;4996166;28;20038;-47
2022/03/23 04:15:56;;;;;;;48.47;17.45;;;;;;;6.14;64.97;101483.47;4996376;28;20093;-47
2022/03/23 04:18:22;;;;;;;45.85;16.77;;;;;;;6.13;64.49;101486.88;4992944;28;20046;-44
2022/03/23 04:20:49;;;;;;;49.75;17.52;;;;;;;6.12;65.34;101485.09;4995139;28;20042;-46
2022/03/23 04:23:16;;;;;;;49.38;16.70;;;;;;;6.09;64.40;101490.16;4993923;28;20176;-46
2022/03/23 04:25:43;;;;;;;53.33;17.70;;;;;;;6.06;64.67;101482.31;4995129;28;20074;-44
2022/03/23 04:28:11;;;;;;;47.58;17.48;;;;;;;6.02;65.38;101485.53;4993974;28;20383;-46
2022/03/23 04:30:37;;;;;;;49.80;17.65;;;;;;;5.97;65.10;101484.47;4992868;28;20051;-44
2022/03/23 04:33:04;;;;;;;50.38;17.30;;;;;;;5.97;64.61;101487.03;4995401;28;20046;-43
2022/03/23 04:35:31;;;;;;;53.65;18.45;;;;;;;5.96;65.75;101483.59;4993832;28;20058;-45
2022/03/23 04:37:58;;;;;;;46.67;17.77;;;;;;;5.96;65.49;101482.72;4993627;28;20105;-44
2022/03/23 04:40:24;;;;;;;50.17;17.98;;;;;;;5.94;65.70;101484.38;4993121;28;20053;-47
2022/03/23 04:42:51;;;;;;;53.22;17.10;;;;;;;5.91;65.63;101486.00;4990726;28;20046;-44
2022/03/23 04:45:18;;;;;;;49.85;16.73;;;;;;;5.90;65.97;101491.97;4993556;28;20049;-47
2022/03/23 04:47:45;;;;;;;46.45;17.88;;;;;;;5.89;65.40;101487.63;4995725;28;20189;-45
2022/03/23 04:50:14;;;;;;;51.10;16.92;;;;;;;5.89;65.58;101495.34;4994222;28;20079;-48
2022/03/23 04:52:42;;;;;;;52.55;19.20;;;;;;;5.85;64.94;101488.34;4992079;28;20047;-46
2022/03/23 04:55:11;;;;;;;47.22;18.55;;;;;;;5.82;65.40;101506.22;4993922;28;20046;-46
2022/03/23 04:57:39;;;;;;;44.20;17.25;;;;;;;5.77;66.03;101503.44;4993515;28;20058;-44
2022/03/23 05:00:13;;;;;;;52.55;19.48;;;;;;;5.75;65.24;101504.19;4992019;28;20053;-45
2022/03/23 05:02:45;;;;;;;53.85;18.95;;;;;;;5.73;65.82;101503.25;4990919;28;20116;-48
2022/03/23 05:05:13;;;;;;;43.53;16.73;;;;;;;5.71;65.70;101504.88;4988589;28;20076;-43
2022/03/23 05:07:41;;;;;;;51.50;17.67;;;;;;;5.68;65.35;101512.47;4991960;28;20046;-44
2022/03/23 05:10:10;;;;;;;51.35;16.40;;;;;;;5.65;65.26;101508.94;4992801;28;20042;-43
2022/03/23 05:12:38;;;;;;;48.58;17.30;;;;;;;5.62;65.05;101516.56;4992827;28;20042;-43
2022/03/23 05:15:06;;;;;;;48.58;18.90;;;;;;;5.60;65.75;101510.47;4991994;28;20050;-44
2022/03/23 05:17:33;;;;;;;49.95;17.70;;;;;;;5.59;65.95;101508.72;4994042;28;20065;-44
2022/03/23 05:20:00;;;;;;;51.47;18.25;;;;;;;5.58;66.28;101511.22;4992900;28;20456;-45
2022/03/23 05:22:26;;;;;;;54.83;19.20;;;;;;;5.57;66.83;101512.03;4994365;28;20050;-47
2022/03/23 05:24:53;;;;;;;60.40;20.15;;;;;;;5.55;66.86;101511.97;4993705;28;20046;-42
2022/03/23 05:27:20;;;;;;;56.55;18.30;;;;;;;5.55;66.94;101517.13;4994404;28;20104;-43
2022/03/23 05:29:47;;;;;;;58.95;20.05;;;;;;;5.53;66.52;101514.47;4991548;28;20555;-46
2022/03/23 05:32:18;;;;;;;49.30;17.58;;;;;;;5.52;65.80;101511.84;4989091;28;20054;-45
2022/03/23 05:34:48;;;;;;;55.47;17.75;;;;;;;5.50;66.00;101516.03;4991766;28;20051;-42
2022/03/23 05:37:16;;;;;;;57.55;19.92;;;;;;;5.49;66.05;101514.28;4992407;28;20678;-44
2022/03/23 05:39:44;;;;;;;53.33;18.17;;;;;;;5.45;66.18;101510.72;4990457;28;20548;-41
2022/03/23 05:42:11;;;;;;;56.05;19.30;;;;;;;5.44;66.60;101524.34;4988761;28;20065;-46
2022/03/23 05:44:38;;;;;;;57.58;19.27;;;;;;;5.42;66.36;101509.69;4986654;28;20529;-43
2022/03/23 05:47:05;;;;;;;58.92;18.83;;;;;;;5.39;66.68;101516.47;4990376;28;20120;-43
2022/03/23 05:49:32;;;;;;;50.05;18.73;;;;;;;5.37;66.31;101512.94;4995732;28;20050;-44
2022/03/23 05:51:59;;;;;;;52.20;19.27;;;;;;;5.35;65.84;101509.44;4994191;28;20548;-43
2022/03/23 05:54:26;;;;;;;54.92;20.45;;;;;;;5.36;66.52;101520.56;4986713;28;20053;-43
2022/03/23 05:56:52;;;;;;;59.03;19.38;;;;;;;5.32;66.37;101514.44;4990421;28;20054;-46
2022/03/23 05:59:20;;;;;;;59.58;20.73;;;;;;;5.33;66.13;101515.34;4988219;28;20046;-44
2022/03/23 06:01:46;;;;;;;51.50;19.20;;;;;;;5.30;66.41;101516.06;4984342;28;20057;-45
2022/03/23 06:04:13;;;;;;;55.17;19.73;;;;;;;5.30;66.07;101525.47;4985602;28;20058;-43
2022/03/23 06:06:40;;;;;;;59.53;19.20;;;;;;;5.28;65.82;101523.69;4987432;28;20572;-46
2022/03/23 06:09:06;;;;;;;54.33;18.80;;;;;;;5.28;66.45;101522.84;4987243;28;20046;-42
2022/03/23 06:11:33;;;;;;;53.95;21.13;;;;;;;5.25;66.39;101528.72;4986037;28;20042;-46
2022/03/23 06:13:59;;;;;;;53.25;19.30;;;;;;;5.24;67.16;101526.09;4986826;28;20450;-45
2022/03/23 06:16:26;;;;;;;56.67;20.52;;;;;;;5.24;66.41;101526.09;4987643;28;20060;-43
2022/03/23 06:18:53;;;;;;;53.40;19.30;;;;;;;5.24;66.16;101533.78;4985908;28;20054;-43
2022/03/23 06:21:19;;;;;;;58.90;19.17;;;;;;;5.26;66.50;101527.00;4988759;28;20046;-47
2022/03/23 06:23:46;;;;;;;60.38;21.88;;;;;;;5.26;66.06;101524.44;4988184;28;20046;-44
2022/03/23 06:26:13;;;;;;;54.30;18.58;;;;;;;5.29;66.36;101529.72;4985058;28;20054;-46
2022/03/23 06:28:39;;;;;;;66.03;22.55;;;;;;;5.31;66.66;101528.13;4990620;28;20046;-45
2022/03/23 06:31:06;;;;;;;58.80;21.10;;;;;;;5.34;66.59;101533.34;4990953;28;20042;-46
2022/03/23 06:33:33;;;;;;;59.00;20.58;;;;;;;5.38;66.83;101535.25;4984475;28;20061;-47
2022/03/23 06:35:59;;;;;;;59.83;20.92;;;;;;;5.42;66.38;101530.25;4986443;28;20069;-44
2022/03/23 06:38:26;;;;;;;69.53;21.88;;;;;;;5.46;66.47;101532.13;4990951;28;20688;-48
2022/03/23 06:40:53;;;;;;;58.58;20.52;;;;;;;5.50;66.52;101539.16;4985423;28;20562;-45
2022/03/23 06:43:20;;;;;;;59.17;21.45;;;;;;;5.55;66.70;101536.78;4991674;28;20113;-45
2022/03/23 06:45:46;;;;;;;57.88;21.17;;;;;;;5.59;66.58;101539.56;4988763;28;20077;-46
2022/03/23 06:48:14;;;;;;;62.20;23.02;;;;;;;5.62;66.31;101543.94;4984674;28;20152;-45
2022/03/23 06:50:40;;;;;;;59.55;20.58;;;;;;;5.68;66.79;101538.19;4987969;28;20042;-46
2022/03/23 06:53:07;;;;;;;61.10;21.55;;;;;;;5.73;66.23;101544.38;4982674;28;20050;-44
2022/03/23 06:55:34;;;;;;;61.95;23.15;;;;;;;5.79;66.19;101544.66;4990648;28;20042;-45
2022/03/23 06:58:00;;;;;;;56.63;20.55;;;;;;;5.86;65.73;101559.50;4988952;28;20049;-44
2022/03/23 07:00:27;;;;;;;66.10;22.63;;;;;;;5.92;66.50;101567.47;4986861;28;20065;-45
2022/03/23 07:02:53;;;;;;;64.93;21.85;;;;;;;5.99;65.80;101567.72;4991140;28;20046;-43
2022/03/23 07:05:20;;;;;;;65.45;22.08;;;;;;;6.05;66.66;101575.72;4987569;28;20050;-45
2022/03/23 07:10:34;;;;;;;56.13;20.23;;;;;;;6.17;66.51;101565.03;4985743;28;20061;-48
2022/03/23 07:13:01;;;;;;;58.30;21.88;;;;;;;6.25;65.66;101567.94;4992107;28;20103;-45
2022/03/23 07:15:28;;;;;;;58.53;21.00;;;;;;;6.36;66.09;101574.38;4993875;28;20054;-45
2022/03/23 07:17:55;;;;;;;60.70;21.48;;;;;;;6.47;66.08;101579.06;4991025;28;20134;-45
2022/03/23 07:20:23;;;;;;;62.80;21.80;;;;;;;6.58;66.20;101577.78;4994349;28;20077;-48
2022/03/23 07:22:49;;;;;;;68.38;24.25;;;;;;;6.68;65.48;101574.75;4992893;28;20050;-45
2022/03/23 07:25:16;;;;;;;64.57;23.83;;;;;;;6.85;65.31;101573.63;4996704;28;20105;-48
2022/03/23 07:27:43;;;;;;;68.40;23.20;;;;;;;7.40;65.26;101587.59;4993010;28;20641;-47
2022/03/23 07:30:10;;;;;;;63.45;23.75;;;;;;;8.18;65.75;101585.03;4991564;28;20053;-45
2022/03/23 07:32:38;;;;;;;62.35;23.25;;;;;;;8.98;65.31;101596.06;4997205;28;20470;-49
2022/03/23 07:35:05;;;;;;;64.43;22.55;;;;;;;9.74;64.00;101593.78;4988046;28;20050;-44
2022/03/23 07:37:32;;;;;;;61.83;22.45;;;;;;;10.43;62.96;101590.25;4993164;28;20050;-44
2022/03/23 07:39:58;;;;;;;54.95;21.63;;;;;;;11.04;61.94;101600.19;4982866;28;20058;-46
2022/03/23 07:42:30;;;;;;;52.28;21.42;;;;;;;11.68;61.76;101606.56;4983259;28;24726;-48
2022/03/23 07:44:56;;;;;;;54.92;22.27;;;;;;;12.30;60.33;101604.16;4979007;28;20050;-48
2022/03/23 07:47:23;;;;;;;58.47;22.08;;;;;;;12.83;58.90;101605.75;4971069;28;20042;-47
2022/03/23 07:49:50;;;;;;;54.58;22.95;;;;;;;13.30;57.56;101603.69;4977284;28;20073;-45
2022/03/23 07:52:18;;;;;;;57.92;22.23;;;;;;;13.74;56.33;101611.97;4982832;28;20061;-50
2022/03/23 07:54:45;;;;;;;52.13;21.75;;;;;;;14.19;55.32;101614.09;4984820;28;20053;-51
2022/03/23 07:57:12;;;;;;;54.67;22.13;;;;;;;14.61;54.25;101612.63;4982868;28;20054;-48
2022/03/23 07:59:39;;;;;;;51.58;21.95;;;;;;;15.05;53.79;101618.06;4981854;28;20104;-48
2022/03/23 08:02:06;;;;;;;52.45;22.38;;;;;;;15.37;52.41;101622.50;4982360;28;20049;-48
2022/03/23 08:04:51;;;;;;;51.78;20.90;;;;;;;15.61;52.04;101618.22;4977219;28;20605;-46
2022/03/23 08:07:18;;;;;;;52.53;21.02;;;;;;;15.91;51.47;101616.47;4982993;28;20057;-47
2022/03/23 08:09:45;;;;;;;52.97;21.13;;;;;;;16.27;51.29;101620.84;4982764;28;20088;-49
2022/03/23 08:12:12;;;;;;;49.47;21.35;;;;;;;16.65;50.37;101622.50;4983222;28;20119;-46
2022/03/23 08:14:39;;;;;;;49.50;21.48;;;;;;;17.00;49.23;101619.78;4984034;28;20078;-47
2022/03/23 08:17:05;;;;;;;57.30;22.42;;;;;;;17.32;49.55;101622.28;4984798;28;20109;-46
2022/03/23 08:19:32;;;;;;;56.97;21.58;;;;;;;17.46;48.39;101618.69;4983486;28;20100;-53
2022/03/23 08:21:59;;;;;;;52.55;22.65;;;;;;;17.53;47.12;101620.38;4975646;28;20054;-45
2022/03/23 08:24:26;;;;;;;54.38;22.55;;;;;;;17.63;46.83;101621.19;4978843;28;20122;-40
2022/03/23 08:26:53;;;;;;;52.72;21.88;;;;;;;17.83;46.59;101628.03;4981004;28;20108;-41
2022/03/23 08:29:20;;;;;;;53.72;23.02;;;;;;;17.99;45.86;101629.66;4996596;28;20050;-40
2022/03/23 08:31:47;;;;;;;55.15;21.95;;;;;;;17.92;45.98;101633.22;4976789;28;20105;-41
2022/03/23 08:34:14;;;;;;;58.45;23.73;;;;;;;17.84;45.63;101629.78;4991212;28;20050;-41
2022/03/23 08:36:41;;;;;;;55.80;24.20;;;;;;;17.82;46.20;101623.69;4992065;28;20062;-41
2022/03/23 08:39:07;;;;;;;55.28;23.52;;;;;;;18.09;46.82;101625.25;4988559;28;20521;-42
2022/03/23 08:41:34;;;;;;;51.25;23.10;;;;;;;18.46;45.77;101618.75;4987375;28;20113;-41
2022/03/23 08:44:01;;;;;;;50.03;22.55;;;;;;;18.67;44.81;101624.66;4988727;28;20054;-48
2022/03/23 08:46:28;;;;;;;53.88;22.63;;;;;;;18.80;44.63;101624.50;4989679;28;20042;-44
2022/03/23 08:48:55;;;;;;;54.47;22.30;;;;;;;19.07;44.49;101622.44;4987945;28;20077;-45
2022/03/23 08:51:22;;;;;;;50.28;21.73;;;;;;;19.12;43.31;101633.78;4991219;28;20043;-41
2022/03/23 08:53:48;;;;;;;53.28;23.92;;;;;;;19.32;43.14;101635.25;4988941;28;20064;-44
2022/03/23 08:56:15;;;;;;;50.45;23.00;;;;;;;19.48;42.40;101636.78;4990269;28;20104;-43
2022/03/23 08:58:47;;;;;;;53.22;22.42;;;;;;;19.52;42.76;101633.22;4985327;28;20061;-42
2022/03/23 09:01:15;;;;;;;52.03;23.50;;;;;;;19.91;42.85;101629.09;4986857;28;20116;-40
2022/03/23 09:03:43;;;;;;;50.28;22.45;;;;;;;20.36;42.42;101636.25;4986413;28;20129;-44
2022/03/23 09:06:10;;;;;;;48.90;22.42;;;;;;;20.80;41.52;101631.00;4985955;28;20057;-40
2022/03/23 09:08:38;;;;;;;55.20;23.13;;;;;;;21.27;40.56;101635.31;4981764;28;20050;-43
2022/03/23 09:11:04;;;;;;;52.33;23.17;;;;;;;21.69;40.43;101633.50;4983550;28;20053;-42
2022/03/23 09:13:32;;;;;;;54.55;24.02;;;;;;;22.11;40.11;101636.88;5004113;28;20059;-42
2022/03/23 09:15:59;;;;;;;47.97;23.48;;;;;;;22.44;39.03;101631.63;4989300;28;20054;-44
2022/03/23 09:18:26;;;;;;;50.00;22.17;;;;;;;22.64;37.54;101630.22;4982034;28;20490;-42
2022/03/23 09:20:53;;;;;;;54.13;24.38;;;;;;;22.87;38.04;101629.56;4987716;28;20054;-45
2022/03/23 09:23:20;;;;;;;49.85;21.90;;;;;;;23.16;37.50;101633.09;5001437;28;20042;-40
2022/03/23 09:25:49;;;;;;;49.67;22.63;;;;;;;23.57;37.31;101635.38;4985808;28;20045;-42
2022/03/23 09:28:15;;;;;;;48.88;22.63;;;;;;;23.87;37.08;101630.00;4984931;28;20057;-44
2022/03/23 09:30:42;;;;;;;51.15;24.65;;;;;;;24.13;36.36;101630.94;4982492;28;20081;-45
2022/03/23 09:33:09;;;;;;;46.40;22.60;;;;;;;24.35;35.55;101637.25;4989252;28;20043;-45
2022/03/23 09:35:36;;;;;;;52.28;24.13;;;;;;;24.60;35.26;101634.56;4988178;28;20058;-42
2022/03/23 09:38:03;;;;;;;52.22;23.33;;;;;;;24.83;35.03;101646.09;4989758;28;21782;-46
2022/03/23 09:40:31;;;;;;;48.53;23.30;;;;;;;25.03;34.28;101641.84;4987565;28;20170;-45
2022/03/23 09:43:01;;;;;;;;;;;;;;;25.00;34.32;101642.81;4990262;28;20046;-46
2022/03/23 09:45:38;;;;;;;49.90;22.02;;;;;;;25.14;34.33;101638.78;4981583;28;19925;-42
2022/03/23 09:48:09;;;;;;;48.00;22.90;;;;;;;25.22;33.67;101638.47;4988172;28;20082;-46
2022/03/23 09:50:40;;;;;;;53.53;24.10;;;;;;;25.34;33.96;101648.59;5001870;28;20046;-48
2022/03/23 09:53:07;;;;;;;52.05;22.88;;;;;;;25.45;33.32;101648.16;4984746;28;20042;-45
2022/03/23 09:55:34;;;;;;;48.53;22.27;;;;;;;25.57;33.70;101646.81;4988669;28;20049;-43
2022/03/23 09:58:02;;;;;;;54.72;24.63;;;;;;;25.76;33.21;101646.06;4988899;28;20054;-44
2022/03/23 10:00:35;;;;;;;50.08;23.65;;;;;;;25.92;33.04;101652.47;4985224;28;20054;-44
2022/03/23 12:27:54;;;;;;;25.15;10.85;;;;;;;21.02;34.40;101582.31;5059258;28;20094;-43
2022/03/23 17:25:36;;;;;;;17.45;6.68;;;;;;;17.40;33.93;101462.47;5039599;28;20505;-41
2022/03/23 17:28:03;;;;;;;14.82;6.35;;;;;;;17.37;33.15;101454.66;5054236;28;20057;-42
2022/03/23 17:30:29;;;;;;;17.90;7.05;;;;;;;17.34;33.07;101459.91;5060077;28;20102;-43
2022/03/23 17:32:56;;;;;;;15.57;6.68;;;;;;;17.29;33.86;101461.72;5062091;28;20053;-43
2022/03/23 17:35:23;;;;;;;17.15;7.00;;;;;;;17.24;33.32;101463.47;5055980;28;20052;-41
2022/03/23 17:37:50;;;;;;;18.10;6.80;;;;;;;17.17;33.29;101460.91;5057681;28;20435;-40
2022/03/23 17:40:17;;;;;;;15.85;6.80;;;;;;;17.11;33.61;101458.34;5054805;28;20056;-44
2022/03/23 17:42:44;;;;;;;15.20;6.22;;;;;;;17.01;33.50;101454.88;5059935;28;20056;-41
2022/03/23 17:45:29;;;;;;;14.95;5.70;;;;;;;16.92;34.15;101461.03;5052870;28;20080;-40
2022/03/23 17:47:56;;;;;;;16.30;6.63;;;;;;;16.84;33.85;101462.84;5056450;28;20056;-42
2022/03/23 17:50:23;;;;;;;20.80;8.02;;;;;;;16.76;34.42;101459.41;5059692;28;20057;-40
2022/03/23 17:52:49;;;;;;;18.35;9.45;;;;;;;16.68;34.62;101468.16;5058581;28;20498;-41
2022/03/23 17:55:16;;;;;;;17.67;7.93;;;;;;;16.59;34.50;101463.00;5060001;28;20139;-43
2022/03/23 17:57:43;;;;;;;17.20;6.93;;;;;;;16.53;34.42;101457.78;5059332;28;20048;-41
2022/03/23 18:00:11;;;;;;;20.00;7.90;;;;;;;16.48;34.83;101462.19;5057174;28;20103;-40
2022/03/23 18:02:37;;;;;;;22.13;7.35;;;;;;;16.40;34.83;101470.94;5059194;28;20052;-41
2022/03/23 18:05:04;;;;;;;21.15;7.22;;;;;;;16.33;34.75;101471.81;5059904;28;20413;-43
2022/03/23 18:07:32;;;;;;;18.73;7.53;;;;;;;16.26;34.55;101467.50;5055021;28;20090;-40
2022/03/23 18:09:59;;;;;;;17.10;6.07;;;;;;;16.19;34.50;101472.72;5057938;28;20056;-46
2022/03/23 18:12:26;;;;;;;16.88;7.05;;;;;;;16.11;34.79;101471.03;5059251;28;20492;-42
2022/03/23 18:14:53;;;;;;;29.30;11.00;;;;;;;16.04;35.21;101480.63;5058633;28;20074;-42
2022/03/23 18:17:20;;;;;;;23.38;9.18;;;;;;;15.98;35.13;101478.03;5057624;28;20045;-42
2022/03/23 18:19:47;;;;;;;21.50;9.23;;;;;;;15.90;34.81;101483.22;5063967;28;20098;-46
2022/03/23 18:22:14;;;;;;;28.77;9.57;;;;;;;15.80;35.14;101471.94;5060610;28;20063;-42
2022/03/23 18:24:40;;;;;;;21.13;7.75;;;;;;;15.72;35.69;101478.91;5054569;28;20064;-44
2022/03/23 18:27:07;;;;;;;20.52;8.20;;;;;;;15.62;35.53;101486.75;5058307;28;20084;-42
2022/03/23 18:29:34;;;;;;;25.35;8.93;;;;;;;15.53;35.54;101485.03;5059909;28;21961;-44
2022/03/23 18:32:00;;;;;;;18.77;8.27;;;;;;;15.47;36.19;101489.38;5058540;28;20074;-43
2022/03/23 18:34:27;;;;;;;16.80;7.03;;;;;;;15.40;35.86;101494.59;5053722;28;20076;-41
2022/03/23 18:36:54;;;;;;;19.17;8.60;;;;;;;15.33;35.91;101494.59;5061714;28;20052;-42
2022/03/23 18:39:21;;;;;;;18.95;7.95;;;;;;;15.26;36.13;101493.72;5063471;28;20106;-43
2022/03/23 18:41:48;;;;;;;18.83;7.75;;;;;;;15.18;36.20;101500.66;5062679;28;20133;-43
2022/03/23 18:44:14;;;;;;;20.80;8.05;;;;;;;15.07;36.44;101491.09;5064729;28;20600;-42
2022/03/23 18:46:41;;;;;;;22.23;8.57;;;;;;;14.99;36.21;101500.63;5064470;28;20052;-41
2022/03/23 18:49:07;;;;;;;22.83;7.65;;;;;;;14.92;36.57;101509.34;5066315;28;20544;-43